createdAt,value
2022-12-25T00:04:56.069Z,28.50
2022-12-25T00:15:00.123Z,33.20
2022-12-25T00:25:04.535Z,26.00
2022-12-25T00:35:08.790Z,35.30
2022-12-25T00:45:13.149Z,32.60
2022-12-25T00:55:19.088Z,33.90
2022-12-25T01:05:22.853Z,27.50
2022-12-25T01:15:27.027Z,23.80
2022-12-25T01:25:30.904Z,31.20
2022-12-25T01:35:35.182Z,32.70
2022-12-25T01:45:44.826Z,29.70
2022-12-25T01:55:51.586Z,22.20
2022-12-25T02:05:55.969Z,25.00
2022-12-25T02:16:16.273Z,18.90
2022-12-25T02:26:57.780Z,25.60
2022-12-25T02:37:11.580Z,23.10
2022-12-25T02:47:35.537Z,22.30
2022-12-25T02:58:03.118Z,20.50
2022-12-25T03:08:12.719Z,17.50
2022-12-25T03:18:20.126Z,17.60
2022-12-25T03:39:25.626Z,30.50
2022-12-25T03:50:01.638Z,15.70
2022-12-25T04:00:24.895Z,23.10
2022-12-25T04:10:47.350Z,17.30
2022-12-25T04:21:10.031Z,20.50
2022-12-25T04:31:32.784Z,13.80
2022-12-25T04:41:36.831Z,14.60
2022-12-25T04:51:40.568Z,13.90
2022-12-25T05:01:44.662Z,12.00
2022-12-25T05:11:48.619Z,14.80
2022-12-25T05:21:52.393Z,13.40
2022-12-25T05:31:56.266Z,13.90
2022-12-25T05:42:00.127Z,13.90
2022-12-25T05:52:04.306Z,12.70
2022-12-25T06:02:08.280Z,13.30
2022-12-25T06:12:12.351Z,13.50
2022-12-25T06:22:16.115Z,16.00
2022-12-25T06:32:20.814Z,14.90
2022-12-25T06:42:24.525Z,18.20
2022-12-25T06:52:28.364Z,18.20
2022-12-25T07:02:34.408Z,13.70
2022-12-25T07:12:38.687Z,19.70
2022-12-25T07:22:42.628Z,16.10
2022-12-25T07:32:50.117Z,24.50
2022-12-25T07:42:54.551Z,20.10
2022-12-25T07:52:58.627Z,17.90
2022-12-25T08:03:03.063Z,21.60
2022-12-25T08:13:13.956Z,17.50
2022-12-25T08:23:18.543Z,33.60
2022-12-25T08:33:22.899Z,25.50
2022-12-25T08:43:26.884Z,32.20
2022-12-25T08:53:31.175Z,28.60
2022-12-25T09:03:36.283Z,31.80
2022-12-25T09:13:40.437Z,51.90
2022-12-25T09:23:44.812Z,45.80
2022-12-25T09:33:49.627Z,35.30
2022-12-25T09:44:11.706Z,40.20
2022-12-25T09:54:38.617Z,29.50
2022-12-25T10:05:09.067Z,41.00
2022-12-25T10:15:45.250Z,21.20
2022-12-25T10:25:52.235Z,22.40
2022-12-25T10:35:56.495Z,33.80
2022-12-25T10:46:00.913Z,45.90
2022-12-25T10:56:08.281Z,26.70
2022-12-25T11:06:29.919Z,25.80
2022-12-25T11:16:40.628Z,30.10
2022-12-25T11:26:53.469Z,35.60
2022-12-25T11:37:00.469Z,33.80
2022-12-25T11:47:14.155Z,46.30
2022-12-25T11:57:19.049Z,20.90
2022-12-25T12:07:30.586Z,49.50
2022-12-25T12:17:35.490Z,9.20
2022-12-25T12:27:41.515Z,17.50
2022-12-25T12:37:51.748Z,13.00
2022-12-25T12:47:56.397Z,10.50
2022-12-25T12:58:02.947Z,18.50
2022-12-25T13:08:39.736Z,6.70
2022-12-25T13:18:44.545Z,11.00
2022-12-25T13:28:48.946Z,15.40
2022-12-25T13:38:57.095Z,9.70
2022-12-25T13:49:02.431Z,9.30
2022-12-25T13:59:06.697Z,18.20
2022-12-25T14:09:13.102Z,23.40
2022-12-25T14:19:34.956Z,15.40
2022-12-25T14:29:47.578Z,12.50
2022-12-25T14:39:57.768Z,39.70
2022-12-25T14:50:02.242Z,15.80
2022-12-25T15:00:30.392Z,17.70
2022-12-25T15:21:00.589Z,23.10
2022-12-25T15:31:15.751Z,25.90
2022-12-25T15:42:20.902Z,36.50
2022-12-25T15:52:25.195Z,33.60
2022-12-25T16:02:29.251Z,49.80
2022-12-25T16:12:33.647Z,74.70
2022-12-25T16:22:40.378Z,68.30
2022-12-25T16:32:51.766Z,70.40
2022-12-25T16:42:58.478Z,73.80
2022-12-25T16:53:02.741Z,71.20
2022-12-25T17:03:07.148Z,60.00
2022-12-25T17:13:11.449Z,63.90
2022-12-25T17:23:16.047Z,66.50
2022-12-25T17:33:20.387Z,67.70
2022-12-25T17:43:24.774Z,74.40
2022-12-25T17:53:28.939Z,75.10
2022-12-25T18:03:33.302Z,70.60
2022-12-25T18:13:38.222Z,66.70
2022-12-25T18:23:42.992Z,79.10
2022-12-25T18:33:48.194Z,105.70
2022-12-25T18:43:55.586Z,81.60
2022-12-25T18:54:02.185Z,87.70
2022-12-25T19:04:06.760Z,73.70
2022-12-25T19:14:11.125Z,85.70
2022-12-25T19:24:16.236Z,84.30
2022-12-25T19:34:20.728Z,86.80
2022-12-25T19:44:26.522Z,79.70
2022-12-25T19:54:31.474Z,90.70
2022-12-25T20:04:36.260Z,153.40
2022-12-25T20:14:41.029Z,98.90
2022-12-25T20:24:48.163Z,101.30
2022-12-25T20:34:52.775Z,100.50
2022-12-25T20:44:57.321Z,151.70
2022-12-25T20:55:02.558Z,118.90
2022-12-25T21:05:11.969Z,115.10
2022-12-25T21:15:16.649Z,126.10
2022-12-25T21:25:20.585Z,119.70
2022-12-25T21:35:25.075Z,124.80
2022-12-25T21:45:30.547Z,163.70
2022-12-25T21:55:35.666Z,214.80
2022-12-25T22:05:58.466Z,150.30
2022-12-25T22:16:24.975Z,119.10
2022-12-25T22:26:28.958Z,135.90
2022-12-25T22:36:33.171Z,125.70
2022-12-25T22:46:37.525Z,121.90
2022-12-25T22:56:41.562Z,166.20
2022-12-25T23:06:46.901Z,273.10
2022-12-25T23:16:50.832Z,316.30
2022-12-25T23:26:55.948Z,162.40
2022-12-25T23:37:00.433Z,253.70
2022-12-25T23:47:05.788Z,138.20
2022-12-25T23:57:11.358Z,217.60
